sensor_id;sensor_type;location;lat;lon;timestamp;pressure;altitude;pressure_sealevel;temperature;humidity
69214;BME280;56325;47.030;18.518;2023-05-23T00:00:45;100144.47;;;18.71;76.77
69214;BME280;56325;47.030;18.518;2023-05-23T00:03:20;100149.59;;;18.61;77.27
69214;BME280;56325;47.030;18.518;2023-05-23T00:05:56;100141.03;;;18.48;77.68
69214;BME280;56325;47.030;18.518;2023-05-23T00:08:32;100143.28;;;18.61;77.30
69214;BME280;56325;47.030;18.518;2023-05-23T00:11:07;100138.69;;;18.58;77.04
69214;BME280;56325;47.030;18.518;2023-05-23T00:13:42;100157.59;;;18.29;78.08
69214;BME280;56325;47.030;18.518;2023-05-23T00:16:17;100144.97;;;18.23;78.50
69214;BME280;56325;47.030;18.518;2023-05-23T00:18:52;100136.84;;;18.30;77.31
69214;BME280;56325;47.030;18.518;2023-05-23T00:21:29;100140.41;;;17.67;80.52
69214;BME280;56325;47.030;18.518;2023-05-23T00:24:06;100145.63;;;17.99;79.04
69214;BME280;56325;47.030;18.518;2023-05-23T00:26:41;100147.69;;;17.87;79.80
69214;BME280;56325;47.030;18.518;2023-05-23T00:29:16;100157.31;;;17.86;79.55
69214;BME280;56325;47.030;18.518;2023-05-23T00:31:51;100154.25;;;17.90;79.46
69214;BME280;56325;47.030;18.518;2023-05-23T00:34:26;100148.34;;;18.16;78.54
69214;BME280;56325;47.030;18.518;2023-05-23T00:37:00;100149.78;;;17.53;81.22
69214;BME280;56325;47.030;18.518;2023-05-23T00:39:36;100145.72;;;17.54;80.99
69214;BME280;56325;47.030;18.518;2023-05-23T00:42:11;100145.72;;;17.65;80.89
69214;BME280;56325;47.030;18.518;2023-05-23T00:44:46;100148.19;;;17.86;80.00
69214;BME280;56325;47.030;18.518;2023-05-23T00:47:20;100144.88;;;17.98;79.51
69214;BME280;56325;47.030;18.518;2023-05-23T00:49:55;100137.53;;;18.01;79.22
69214;BME280;56325;47.030;18.518;2023-05-23T00:52:30;100145.56;;;18.10;78.73
69214;BME280;56325;47.030;18.518;2023-05-23T00:55:07;100137.75;;;18.03;79.07
69214;BME280;56325;47.030;18.518;2023-05-23T00:57:42;100137.00;;;18.02;78.69
69214;BME280;56325;47.030;18.518;2023-05-23T01:00:17;100143.56;;;18.05;78.82
69214;BME280;56325;47.030;18.518;2023-05-23T01:02:53;100140.31;;;17.95;79.29
69214;BME280;56325;47.030;18.518;2023-05-23T01:05:28;100143.84;;;18.01;78.53
69214;BME280;56325;47.030;18.518;2023-05-23T01:08:02;100147.38;;;18.02;78.47
69214;BME280;56325;47.030;18.518;2023-05-23T01:10:38;100141.56;;;18.00;78.55
69214;BME280;56325;47.030;18.518;2023-05-23T01:13:21;100136.06;;;17.89;78.95
69214;BME280;56325;47.030;18.518;2023-05-23T01:16:00;100137.06;;;17.86;78.98
69214;BME280;56325;47.030;18.518;2023-05-23T01:18:38;100127.94;;;17.91;79.09
69214;BME280;56325;47.030;18.518;2023-05-23T01:21:16;100127.19;;;17.96;78.46
69214;BME280;56325;47.030;18.518;2023-05-23T01:24:17;100128.69;;;17.97;78.32
69214;BME280;56325;47.030;18.518;2023-05-23T01:27:18;100128.19;;;17.98;78.19
69214;BME280;56325;47.030;18.518;2023-05-23T01:29:59;100124.44;;;17.85;78.76
69214;BME280;56325;47.030;18.518;2023-05-23T01:32:36;100117.06;;;17.93;78.25
69214;BME280;56325;47.030;18.518;2023-05-23T01:35:12;100126.44;;;17.90;78.44
69214;BME280;56325;47.030;18.518;2023-05-23T01:37:47;100119.59;;;17.96;77.99
69214;BME280;56325;47.030;18.518;2023-05-23T01:40:23;100121.84;;;17.98;77.87
69214;BME280;56325;47.030;18.518;2023-05-23T01:42:58;100123.16;;;17.86;78.45
69214;BME280;56325;47.030;18.518;2023-05-23T01:45:34;100110.78;;;17.87;78.32
69214;BME280;56325;47.030;18.518;2023-05-23T01:48:10;100124.94;;;17.83;78.29
69214;BME280;56325;47.030;18.518;2023-05-23T01:50:46;100123.91;;;17.92;77.58
69214;BME280;56325;47.030;18.518;2023-05-23T01:53:22;100120.59;;;17.93;77.66
69214;BME280;56325;47.030;18.518;2023-05-23T01:55:57;100125.25;;;17.68;78.36
69214;BME280;56325;47.030;18.518;2023-05-23T01:58:35;100131.03;;;17.82;77.71
69214;BME280;56325;47.030;18.518;2023-05-23T02:01:11;100122.97;;;17.73;78.26
69214;BME280;56325;47.030;18.518;2023-05-23T02:03:46;100123.97;;;17.69;77.89
69214;BME280;56325;47.030;18.518;2023-05-23T02:06:20;100124.22;;;17.77;77.72
69214;BME280;56325;47.030;18.518;2023-05-23T02:08:55;100111.84;;;17.61;78.60
69214;BME280;56325;47.030;18.518;2023-05-23T02:11:29;100114.16;;;17.41;79.25
69214;BME280;56325;47.030;18.518;2023-05-23T02:14:04;100112.38;;;17.54;78.77
69214;BME280;56325;47.030;18.518;2023-05-23T02:16:40;100119.47;;;17.44;79.11
69214;BME280;56325;47.030;18.518;2023-05-23T02:19:15;100110.38;;;17.49;78.75
69214;BME280;56325;47.030;18.518;2023-05-23T02:21:51;100118.44;;;17.58;77.88
69214;BME280;56325;47.030;18.518;2023-05-23T02:24:25;100119.25;;;17.36;78.79
69214;BME280;56325;47.030;18.518;2023-05-23T02:27:00;100124.34;;;17.27;79.15
69214;BME280;56325;47.030;18.518;2023-05-23T02:29:35;100119.03;;;17.29;79.13
69214;BME280;56325;47.030;18.518;2023-05-23T02:32:11;100118.47;;;17.36;78.73
69214;BME280;56325;47.030;18.518;2023-05-23T02:34:45;100118.47;;;17.36;78.14
69214;BME280;56325;47.030;18.518;2023-05-23T02:37:22;100120.25;;;17.33;78.40
69214;BME280;56325;47.030;18.518;2023-05-23T02:39:57;100122.81;;;17.26;78.17
69214;BME280;56325;47.030;18.518;2023-05-23T02:42:32;100113.72;;;17.25;78.15
69214;BME280;56325;47.030;18.518;2023-05-23T02:45:07;100114.00;;;17.11;78.99
69214;BME280;56325;47.030;18.518;2023-05-23T02:47:45;100116.25;;;17.23;78.41
69214;BME280;56325;47.030;18.518;2023-05-23T02:50:19;100118.28;;;17.28;78.21
69214;BME280;56325;47.030;18.518;2023-05-23T02:52:54;100110.69;;;17.23;78.24
69214;BME280;56325;47.030;18.518;2023-05-23T02:55:28;100111.72;;;17.15;78.54
69214;BME280;56325;47.030;18.518;2023-05-23T02:58:04;100118.53;;;17.25;78.31
69214;BME280;56325;47.030;18.518;2023-05-23T03:00:39;100115.19;;;17.43;77.78
69214;BME280;56325;47.030;18.518;2023-05-23T03:03:17;100108.34;;;17.50;77.26
69214;BME280;56325;47.030;18.518;2023-05-23T03:05:51;100115.16;;;17.49;77.17
69214;BME280;56325;47.030;18.518;2023-05-23T03:08:26;100113.41;;;17.40;77.67
69214;BME280;56325;47.030;18.518;2023-05-23T03:11:00;100107.88;;;17.34;77.35
69214;BME280;56325;47.030;18.518;2023-05-23T03:13:35;100104.63;;;17.19;78.19
69214;BME280;56325;47.030;18.518;2023-05-23T03:16:10;100103.81;;;17.41;77.31
69214;BME280;56325;47.030;18.518;2023-05-23T03:18:46;100101.81;;;17.36;77.48
69214;BME280;56325;47.030;18.518;2023-05-23T03:21:21;100102.53;;;17.42;77.09
69214;BME280;56325;47.030;18.518;2023-05-23T03:23:56;100103.06;;;17.41;77.32
69214;BME280;56325;47.030;18.518;2023-05-23T03:26:30;100101.78;;;17.47;76.71
69214;BME280;56325;47.030;18.518;2023-05-23T03:29:05;100104.06;;;17.43;76.92
69214;BME280;56325;47.030;18.518;2023-05-23T03:31:39;100104.38;;;17.28;77.60
69214;BME280;56325;47.030;18.518;2023-05-23T03:34:15;100102.75;;;17.55;76.37
69214;BME280;56325;47.030;18.518;2023-05-23T03:36:50;100104.34;;;17.34;77.39
69214;BME280;56325;47.030;18.518;2023-05-23T03:39:24;100099.31;;;17.27;77.81
69214;BME280;56325;47.030;18.518;2023-05-23T03:41:59;100109.88;;;17.34;77.50
69214;BME280;56325;47.030;18.518;2023-05-23T03:44:34;100112.16;;;17.35;77.44
69214;BME280;56325;47.030;18.518;2023-05-23T03:47:10;100099.81;;;17.31;77.62
69214;BME280;56325;47.030;18.518;2023-05-23T03:49:46;100097.31;;;17.22;77.78
69214;BME280;56325;47.030;18.518;2023-05-23T03:52:21;100102.38;;;17.07;78.55
69214;BME280;56325;47.030;18.518;2023-05-23T03:54:56;100104.91;;;16.99;78.83
69214;BME280;56325;47.030;18.518;2023-05-23T03:57:30;100108.94;;;17.03;78.95
69214;BME280;56325;47.030;18.518;2023-05-23T04:00:06;100109.22;;;17.00;78.61
69214;BME280;56325;47.030;18.518;2023-05-23T04:02:48;100113.25;;;16.93;79.56
69214;BME280;56325;47.030;18.518;2023-05-23T04:05:26;100107.44;;;17.14;79.48
69214;BME280;56325;47.030;18.518;2023-05-23T04:08:00;100111.41;;;17.35;78.11
69214;BME280;56325;47.030;18.518;2023-05-23T04:10:36;100110.94;;;17.31;78.83
69214;BME280;56325;47.030;18.518;2023-05-23T04:13:10;100107.59;;;17.49;78.26
69214;BME280;56325;47.030;18.518;2023-05-23T04:15:45;100099.97;;;17.66;77.65
69214;BME280;56325;47.030;18.518;2023-05-23T04:18:20;100101.97;;;17.72;77.73
69214;BME280;56325;47.030;18.518;2023-05-23T04:20:56;100101.72;;;17.75;78.35
69214;BME280;56325;47.030;18.518;2023-05-23T04:23:30;100104.41;;;17.97;77.51
69214;BME280;56325;47.030;18.518;2023-05-23T04:26:06;100100.56;;;18.06;77.30
69214;BME280;56325;47.030;18.518;2023-05-23T04:53:32;100090.28;;;18.72;77.74
69214;BME280;56325;47.030;18.518;2023-05-23T04:56:08;100097.87;;;18.72;77.55
69214;BME280;56325;47.030;18.518;2023-05-23T04:58:42;100093.06;;;18.72;77.13
69214;BME280;56325;47.030;18.518;2023-05-23T05:01:18;100094.94;;;18.53;78.18
69214;BME280;56325;47.030;18.518;2023-05-23T05:03:56;100088.03;;;18.65;78.35
69214;BME280;56325;47.030;18.518;2023-05-23T05:06:31;100088.75;;;18.71;78.37
69214;BME280;56325;47.030;18.518;2023-05-23T05:09:06;100096.50;;;18.84;78.43
69214;BME280;56325;47.030;18.518;2023-05-23T05:11:41;100093.06;;;19.02;78.17
69214;BME280;56325;47.030;18.518;2023-05-23T05:14:16;100095.66;;;19.19;77.54
69214;BME280;56325;47.030;18.518;2023-05-23T05:16:51;100093.28;;;19.28;77.11
69214;BME280;56325;47.030;18.518;2023-05-23T05:19:27;100092.63;;;19.41;76.11
69214;BME280;56325;47.030;18.518;2023-05-23T05:22:02;100090.25;;;19.51;75.97
69214;BME280;56325;47.030;18.518;2023-05-23T05:24:39;100095.28;;;19.58;75.71
69214;BME280;56325;47.030;18.518;2023-05-23T05:27:14;100089.03;;;19.71;75.26
69214;BME280;56325;47.030;18.518;2023-05-23T05:29:49;100098.69;;;19.70;75.66
69214;BME280;56325;47.030;18.518;2023-05-23T05:32:25;100098.63;;;19.75;75.53
69214;BME280;56325;47.030;18.518;2023-05-23T05:35:01;100091.59;;;20.06;80.98
69214;BME280;56325;47.030;18.518;2023-05-23T05:37:35;100080.34;;;20.49;79.44
69214;BME280;56325;47.030;18.518;2023-05-23T05:40:12;100079.91;;;20.77;78.36
69214;BME280;56325;47.030;18.518;2023-05-23T05:42:46;100081.09;;;20.95;77.69
69214;BME280;56325;47.030;18.518;2023-05-23T05:45:21;100093.09;;;21.22;76.99
69214;BME280;56325;47.030;18.518;2023-05-23T05:47:56;100087.63;;;21.43;75.85
69214;BME280;56325;47.030;18.518;2023-05-23T05:50:31;100092.25;;;21.27;72.79
69214;BME280;56325;47.030;18.518;2023-05-23T05:53:06;100099.31;;;21.15;72.46
69214;BME280;56325;47.030;18.518;2023-05-23T05:55:42;100102.19;;;21.09;72.50
69214;BME280;56325;47.030;18.518;2023-05-23T05:58:17;100099.28;;;21.02;72.44
69214;BME280;56325;47.030;18.518;2023-05-23T06:02:54;100096.66;;;21.36;71.02
69214;BME280;56325;47.030;18.518;2023-05-23T06:05:30;100096.66;;;21.36;71.02
69214;BME280;56325;47.030;18.518;2023-05-23T06:08:05;100100.44;;;20.80;73.12
69214;BME280;56325;47.030;18.518;2023-05-23T06:10:40;100104.34;;;20.58;73.54
69214;BME280;56325;47.030;18.518;2023-05-23T06:13:15;100102.06;;;20.56;73.91
69214;BME280;56325;47.030;18.518;2023-05-23T06:15:50;100112.59;;;20.50;74.11
69214;BME280;56325;47.030;18.518;2023-05-23T06:18:26;100100.47;;;20.61;74.85
69214;BME280;56325;47.030;18.518;2023-05-23T06:21:01;100111.28;;;20.83;74.51
69214;BME280;56325;47.030;18.518;2023-05-23T06:23:37;100100.78;;;21.03;73.92
69214;BME280;56325;47.030;18.518;2023-05-23T06:26:13;100098.69;;;21.22;73.38
69214;BME280;56325;47.030;18.518;2023-05-23T06:28:48;100102.53;;;21.19;74.11
69214;BME280;56325;47.030;18.518;2023-05-23T06:31:22;100098.00;;;21.16;75.38
69214;BME280;56325;47.030;18.518;2023-05-23T06:33:58;100093.12;;;21.35;71.62
69214;BME280;56325;47.030;18.518;2023-05-23T06:36:33;100095.47;;;21.31;71.12
69214;BME280;56325;47.030;18.518;2023-05-23T06:39:07;100097.69;;;21.06;72.64
69214;BME280;56325;47.030;18.518;2023-05-23T06:41:43;100093.06;;;21.09;72.07
69214;BME280;56325;47.030;18.518;2023-05-23T06:44:18;100105.44;;;21.13;72.61
69214;BME280;56325;47.030;18.518;2023-05-23T06:46:55;100094.03;;;21.11;72.98
69214;BME280;56325;47.030;18.518;2023-05-23T06:49:32;100098.44;;;21.20;73.38
69214;BME280;56325;47.030;18.518;2023-05-23T06:52:06;100094.37;;;21.21;76.05
69214;BME280;56325;47.030;18.518;2023-05-23T06:54:41;100086.00;;;21.61;72.69
69214;BME280;56325;47.030;18.518;2023-05-23T06:57:16;100088.78;;;21.74;72.41
69214;BME280;56325;47.030;18.518;2023-05-23T06:59:50;100083.69;;;21.85;72.56
69214;BME280;56325;47.030;18.518;2023-05-23T07:02:25;100085.63;;;22.04;72.85
69214;BME280;56325;47.030;18.518;2023-05-23T07:05:02;100091.09;;;21.96;71.53
69214;BME280;56325;47.030;18.518;2023-05-23T07:07:39;100080.91;;;21.85;72.39
69214;BME280;56325;47.030;18.518;2023-05-23T07:10:14;100085.84;;;22.06;72.30
69214;BME280;56325;47.030;18.518;2023-05-23T07:12:50;100093.03;;;22.14;71.56
69214;BME280;56325;47.030;18.518;2023-05-23T07:15:25;100083.53;;;22.17;70.98
69214;BME280;56325;47.030;18.518;2023-05-23T07:18:00;100083.53;;;22.17;71.47
69214;BME280;56325;47.030;18.518;2023-05-23T07:20:37;100081.31;;;22.37;71.32
69214;BME280;56325;47.030;18.518;2023-05-23T07:23:14;100082.06;;;22.37;71.66
69214;BME280;56325;47.030;18.518;2023-05-23T07:25:49;100077.41;;;22.61;70.35
69214;BME280;56325;47.030;18.518;2023-05-23T07:28:35;100078.91;;;22.62;71.34
69214;BME280;56325;47.030;18.518;2023-05-23T07:31:11;100078.44;;;22.71;70.91
69214;BME280;56325;47.030;18.518;2023-05-23T07:33:47;100080.25;;;22.81;70.82
69214;BME280;56325;47.030;18.518;2023-05-23T07:36:23;100083.25;;;22.83;70.45
69214;BME280;56325;47.030;18.518;2023-05-23T07:38:58;100078.44;;;23.12;70.22
69214;BME280;56325;47.030;18.518;2023-05-23T07:41:33;100078.00;;;23.29;70.74
69214;BME280;56325;47.030;18.518;2023-05-23T07:44:07;100083.72;;;23.52;69.09
69214;BME280;56325;47.030;18.518;2023-05-23T07:46:42;100079.31;;;23.64;67.13
69214;BME280;56325;47.030;18.518;2023-05-23T07:49:17;100069.62;;;23.73;66.92
69214;BME280;56325;47.030;18.518;2023-05-23T07:51:53;100073.44;;;23.91;66.62
69214;BME280;56325;47.030;18.518;2023-05-23T07:54:28;100071.78;;;23.95;64.87
69214;BME280;56325;47.030;18.518;2023-05-23T07:57:03;100072.50;;;23.88;65.23
69214;BME280;56325;47.030;18.518;2023-05-23T07:59:39;100071.13;;;23.74;67.30
69214;BME280;56325;47.030;18.518;2023-05-23T08:02:14;100067.47;;;23.94;65.47
69214;BME280;56325;47.030;18.518;2023-05-23T08:04:50;100074.03;;;23.97;66.26
69214;BME280;56325;47.030;18.518;2023-05-23T08:07:27;100061.50;;;24.05;64.82
69214;BME280;56325;47.030;18.518;2023-05-23T08:10:03;100071.81;;;24.10;64.40
69214;BME280;56325;47.030;18.518;2023-05-23T08:12:38;100069.25;;;24.35;64.14
69214;BME280;56325;47.030;18.518;2023-05-23T08:15:14;100066.28;;;24.41;61.84
69214;BME280;56325;47.030;18.518;2023-05-23T08:17:49;100063.13;;;24.60;62.71
69214;BME280;56325;47.030;18.518;2023-05-23T08:20:29;100056.38;;;24.70;62.49
69214;BME280;56325;47.030;18.518;2023-05-23T08:23:05;100058.25;;;24.68;60.34
69214;BME280;56325;47.030;18.518;2023-05-23T08:25:40;100063.50;;;24.87;60.80
69214;BME280;56325;47.030;18.518;2023-05-23T08:28:15;100058.81;;;24.89;57.04
69214;BME280;56325;47.030;18.518;2023-05-23T08:30:51;100062.75;;;25.09;58.31
69214;BME280;56325;47.030;18.518;2023-05-23T08:33:26;100062.31;;;25.35;58.88
69214;BME280;56325;47.030;18.518;2023-05-23T08:36:01;100062.16;;;25.18;55.53
69214;BME280;56325;47.030;18.518;2023-05-23T08:38:37;100069.47;;;25.13;56.88
69214;BME280;56325;47.030;18.518;2023-05-23T08:41:18;100066.47;;;25.19;56.94
69214;BME280;56325;47.030;18.518;2023-05-23T08:43:53;100065.31;;;25.37;55.73
69214;BME280;56325;47.030;18.518;2023-05-23T08:46:29;100070.13;;;25.60;57.74
69214;BME280;56325;47.030;18.518;2023-05-23T08:49:04;100061.28;;;25.63;57.08
69214;BME280;56325;47.030;18.518;2023-05-23T08:51:42;100071.00;;;25.85;57.62
69214;BME280;56325;47.030;18.518;2023-05-23T08:54:18;100056.03;;;25.75;54.50
69214;BME280;56325;47.030;18.518;2023-05-23T08:56:54;100054.31;;;25.79;52.08
69214;BME280;56325;47.030;18.518;2023-05-23T08:59:30;100056.25;;;26.02;53.84
69214;BME280;56325;47.030;18.518;2023-05-23T09:02:09;100061.22;;;26.19;53.77
69214;BME280;56325;47.030;18.518;2023-05-23T09:04:45;100053.75;;;26.13;51.03
69214;BME280;56325;47.030;18.518;2023-05-23T09:07:20;100052.31;;;26.37;53.92
69214;BME280;56325;47.030;18.518;2023-05-23T09:09:57;100056.66;;;26.31;52.81
69214;BME280;56325;47.030;18.518;2023-05-23T09:12:32;100056.28;;;26.27;50.57
69214;BME280;56325;47.030;18.518;2023-05-23T09:15:09;100045.38;;;26.31;52.21
69214;BME280;56325;47.030;18.518;2023-05-23T09:17:45;100053.41;;;26.42;51.02
69214;BME280;56325;47.030;18.518;2023-05-23T09:20:19;100051.81;;;26.56;50.90
69214;BME280;56325;47.030;18.518;2023-05-23T09:22:56;100042.59;;;26.56;51.97
69214;BME280;56325;47.030;18.518;2023-05-23T09:25:37;100051.34;;;26.67;51.80
69214;BME280;56325;47.030;18.518;2023-05-23T09:28:13;100050.69;;;26.76;51.44
69214;BME280;56325;47.030;18.518;2023-05-23T09:30:56;100050.94;;;26.88;47.98
69214;BME280;56325;47.030;18.518;2023-05-23T09:33:38;100043.16;;;26.79;47.24
69214;BME280;56325;47.030;18.518;2023-05-23T09:36:13;100048.91;;;26.64;46.04
69214;BME280;56325;47.030;18.518;2023-05-23T09:38:49;100049.28;;;26.68;49.66
69214;BME280;56325;47.030;18.518;2023-05-23T09:41:29;100051.38;;;26.85;47.40
69214;BME280;56325;47.030;18.518;2023-05-23T09:44:05;100041.16;;;26.89;45.22
69214;BME280;56325;47.030;18.518;2023-05-23T09:46:40;100036.97;;;26.98;44.34
69214;BME280;56325;47.030;18.518;2023-05-23T09:49:16;100036.47;;;27.09;47.41
69214;BME280;56325;47.030;18.518;2023-05-23T09:51:57;100039.75;;;26.81;45.78
69214;BME280;56325;47.030;18.518;2023-05-23T09:54:32;100035.84;;;26.93;46.20
69214;BME280;56325;47.030;18.518;2023-05-23T09:57:09;100034.00;;;27.13;46.68
69214;BME280;56325;47.030;18.518;2023-05-23T09:59:51;100028.72;;;26.92;45.13
69214;BME280;56325;47.030;18.518;2023-05-23T10:02:54;100040.31;;;27.21;46.73
69214;BME280;56325;47.030;18.518;2023-05-23T10:05:35;100040.87;;;27.02;43.02
69214;BME280;56325;47.030;18.518;2023-05-23T10:08:13;100032.16;;;27.08;45.26
69214;BME280;56325;47.030;18.518;2023-05-23T10:13:59;100028.69;;;27.17;43.81
69214;BME280;56325;47.030;18.518;2023-05-23T10:16:42;100028.13;;;27.36;44.35
69214;BME280;56325;47.030;18.518;2023-05-23T10:19:23;100029.34;;;27.42;47.55
69214;BME280;56325;47.030;18.518;2023-05-23T10:22:00;100017.97;;;27.67;47.05
69214;BME280;56325;47.030;18.518;2023-05-23T10:24:36;100021.31;;;27.83;45.80
69214;BME280;56325;47.030;18.518;2023-05-23T10:27:12;100021.66;;;27.87;42.39
69214;BME280;56325;47.030;18.518;2023-05-23T10:29:48;100019.78;;;27.99;42.79
69214;BME280;56325;47.030;18.518;2023-05-23T10:32:23;100021.91;;;28.08;46.01
69214;BME280;56325;47.030;18.518;2023-05-23T10:35:03;100017.31;;;28.13;46.03
69214;BME280;56325;47.030;18.518;2023-05-23T10:37:47;100007.59;;;28.24;43.33
69214;BME280;56325;47.030;18.518;2023-05-23T10:40:30;100004.31;;;28.27;46.47
69214;BME280;56325;47.030;18.518;2023-05-23T10:43:12;100006.09;;;28.23;45.39
69214;BME280;56325;47.030;18.518;2023-05-23T10:45:50;100004.00;;;28.23;45.91
69214;BME280;56325;47.030;18.518;2023-05-23T10:48:32;100003.94;;;28.14;44.77
69214;BME280;56325;47.030;18.518;2023-05-23T10:51:08;99992.13;;;28.25;45.97
69214;BME280;56325;47.030;18.518;2023-05-23T10:53:44;100004.53;;;27.85;44.47
69214;BME280;56325;47.030;18.518;2023-05-23T10:56:20;100005.34;;;27.95;44.47
69214;BME280;56325;47.030;18.518;2023-05-23T10:58:56;99996.59;;;27.74;42.74
69214;BME280;56325;47.030;18.518;2023-05-23T11:01:38;100002.13;;;27.82;44.03
69214;BME280;56325;47.030;18.518;2023-05-23T11:04:13;100003.31;;;27.79;43.93
69214;BME280;56325;47.030;18.518;2023-05-23T11:06:47;99994.78;;;27.96;43.65
69214;BME280;56325;47.030;18.518;2023-05-23T11:09:23;99995.19;;;27.92;42.52
69214;BME280;56325;47.030;18.518;2023-05-23T11:12:01;99995.47;;;28.14;43.22
69214;BME280;56325;47.030;18.518;2023-05-23T11:14:56;99983.69;;;27.81;43.14
69214;BME280;56325;47.030;18.518;2023-05-23T11:17:34;99979.78;;;28.03;47.07
69214;BME280;56325;47.030;18.518;2023-05-23T11:20:09;99977.69;;;28.30;44.32
69214;BME280;56325;47.030;18.518;2023-05-23T11:22:52;99978.37;;;28.58;46.29
69214;BME280;56325;47.030;18.518;2023-05-23T11:25:41;99975.84;;;28.71;41.39
69214;BME280;56325;47.030;18.518;2023-05-23T11:28:16;99977.34;;;28.72;41.69
69214;BME280;56325;47.030;18.518;2023-05-23T11:30:51;99966.22;;;28.84;41.32
69214;BME280;56325;47.030;18.518;2023-05-23T11:33:29;99959.25;;;29.04;41.03
69214;BME280;56325;47.030;18.518;2023-05-23T11:36:06;99961.63;;;29.08;40.66
69214;BME280;56325;47.030;18.518;2023-05-23T11:38:40;99960.06;;;28.59;40.15
69214;BME280;56325;47.030;18.518;2023-05-23T11:41:15;99956.34;;;28.76;41.97
69214;BME280;56325;47.030;18.518;2023-05-23T11:43:50;99951.03;;;29.09;41.08
69214;BME280;56325;47.030;18.518;2023-05-23T11:46:25;99949.41;;;29.15;42.66
69214;BME280;56325;47.030;18.518;2023-05-23T11:49:01;99946.84;;;29.29;40.78
69214;BME280;56325;47.030;18.518;2023-05-23T11:51:36;99940.16;;;29.05;39.00
69214;BME280;56325;47.030;18.518;2023-05-23T11:54:10;99950.16;;;29.06;39.98
69214;BME280;56325;47.030;18.518;2023-05-23T11:56:45;99935.81;;;29.33;40.93
69214;BME280;56325;47.030;18.518;2023-05-23T11:59:20;99933.56;;;29.51;40.09
69214;BME280;56325;47.030;18.518;2023-05-23T12:01:55;99924.03;;;29.36;38.78
69214;BME280;56325;47.030;18.518;2023-05-23T12:04:33;99912.94;;;29.69;37.78
69214;BME280;56325;47.030;18.518;2023-05-23T12:07:08;99918.50;;;29.48;38.25
69214;BME280;56325;47.030;18.518;2023-05-23T12:09:43;99915.00;;;29.79;40.08
69214;BME280;56325;47.030;18.518;2023-05-23T12:12:18;99904.31;;;29.58;39.38
69214;BME280;56325;47.030;18.518;2023-05-23T12:14:55;99898.88;;;29.31;40.37
69214;BME280;56325;47.030;18.518;2023-05-23T12:17:29;99895.88;;;28.81;40.21
69214;BME280;56325;47.030;18.518;2023-05-23T12:20:09;99884.44;;;28.98;41.80
69214;BME280;56325;47.030;18.518;2023-05-23T12:22:44;99889.31;;;29.26;39.56
69214;BME280;56325;47.030;18.518;2023-05-23T12:25:19;99889.56;;;29.50;39.15
69214;BME280;56325;47.030;18.518;2023-05-23T12:27:55;99883.28;;;29.61;41.31
69214;BME280;56325;47.030;18.518;2023-05-23T12:30:40;99879.13;;;30.03;41.12
69214;BME280;56325;47.030;18.518;2023-05-23T12:33:18;99882.09;;;29.64;36.10
69214;BME280;56325;47.030;18.518;2023-05-23T12:35:55;99879.72;;;29.91;38.02
69214;BME280;56325;47.030;18.518;2023-05-23T12:39:23;99888.38;;;29.93;39.38
69214;BME280;56325;47.030;18.518;2023-05-23T14:03:02;99820.13;;;31.66;33.30
69214;BME280;56325;47.030;18.518;2023-05-23T14:05:37;99820.13;;;31.66;33.30
69214;BME280;56325;47.030;18.518;2023-05-23T14:08:12;99825.69;;;31.41;32.79
69214;BME280;56325;47.030;18.518;2023-05-23T14:10:46;99825.19;;;31.33;34.29
69214;BME280;56325;47.030;18.518;2023-05-23T14:13:21;99819.63;;;31.46;34.09
69214;BME280;56325;47.030;18.518;2023-05-23T14:15:56;99816.75;;;31.23;35.39
69214;BME280;56325;47.030;18.518;2023-05-23T14:18:32;99824.88;;;31.05;34.63
69214;BME280;56325;47.030;18.518;2023-05-23T14:21:07;99821.09;;;31.24;34.89
69214;BME280;56325;47.030;18.518;2023-05-23T14:23:41;99818.91;;;31.46;33.32
69214;BME280;56325;47.030;18.518;2023-05-23T14:26:16;99823.84;;;31.57;34.34
69214;BME280;56325;47.030;18.518;2023-05-23T14:28:51;99819.78;;;31.83;33.22
69214;BME280;56325;47.030;18.518;2023-05-23T14:31:25;99818.56;;;31.86;34.87
69214;BME280;56325;47.030;18.518;2023-05-23T14:34:02;99819.78;;;31.95;34.43
69214;BME280;56325;47.030;18.518;2023-05-23T14:36:37;99822.25;;;31.89;34.94
69214;BME280;56325;47.030;18.518;2023-05-23T14:39:11;99821.53;;;31.77;33.66
69214;BME280;56325;47.030;18.518;2023-05-23T14:41:46;99822.00;;;31.85;33.13
69214;BME280;56325;47.030;18.518;2023-05-23T14:44:21;99817.81;;;31.86;33.60
69214;BME280;56325;47.030;18.518;2023-05-23T14:46:56;99829.00;;;31.25;35.26
69214;BME280;56325;47.030;18.518;2023-05-23T14:49:31;99829.88;;;31.16;34.78
69214;BME280;56325;47.030;18.518;2023-05-23T14:52:06;99825.41;;;31.13;34.07
69214;BME280;56325;47.030;18.518;2023-05-23T14:54:41;99822.84;;;31.17;34.48
69214;BME280;56325;47.030;18.518;2023-05-23T14:57:16;99816.53;;;31.30;35.35
69214;BME280;56325;47.030;18.518;2023-05-23T14:59:50;99813.91;;;31.23;33.76
69214;BME280;56325;47.030;18.518;2023-05-23T15:02:25;99813.78;;;31.09;34.78
69214;BME280;56325;47.030;18.518;2023-05-23T15:05:01;99812.50;;;31.01;35.53
69214;BME280;56325;47.030;18.518;2023-05-23T15:07:37;99798.62;;;31.40;34.31
69214;BME280;56325;47.030;18.518;2023-05-23T15:10:12;99808.28;;;31.58;36.16
69214;BME280;56325;47.030;18.518;2023-05-23T15:12:46;99805.66;;;31.39;36.64
69214;BME280;56325;47.030;18.518;2023-05-23T15:15:21;99802.06;;;31.15;33.61
69214;BME280;56325;47.030;18.518;2023-05-23T15:17:55;99802.59;;;30.90;34.40
69214;BME280;56325;47.030;18.518;2023-05-23T15:20:37;99791.28;;;31.02;34.42